CYCDNANAIMO
METARs for airports near CYCD, sorted by distance:
N 0 nm 92' CYCD 222300Z 36007KT 30SM FEW025 BKN210 07/04 A3054
E 28 nm 14' CYVR 222300Z 29010KT 25SM FEW190 SCT210 SCT240 06/05 A3054
SE 30 nm 64' CYYJ 222300Z 09005KT 30SM FEW200 BKN250 07/05 A3054
SE 43 nm 34' KORS 222255Z 33007KT 10SM CLR 07/05 A3054
SE 46 nm 112' KFHR 222253Z 36005KT 10SM CLR 07/03 A3054
NW 52 nm 425' CYPW 222300Z 29006KT 20SM OVC014 04/03 A3055
E 54 nm 171' KBLI 222253Z 28004KT 10SM FEW010 08/05 A3053
NW 55 nm 84' CYQQ 222300Z 36005KT 20SM OVC010 05/03 A3057
S 57 nm 13' KNOW 222255Z 07007KT 10SM CLR 07/05 A3054
S 58 nm 291' KCLM 222253Z 09008KT 10SM OVC012 07/03 A3053
SE 63 nm 47' KNUW 222256Z 33009KT 10SM FEW010 SCT150 BKN250 08/03 A3057
SE 67 nm 145' KBVS 222255Z 31008KT 9SM CLR 08/05 A3052
S 72 nm 193' KUIL 222253Z VRB04KT 10SM CLR 11/07 A3045
W 74 nm 80' CYAZ 222300Z 21003KT 15SM BKN240 07/04 A3050
NW 76 nm 357' CYBL 222300Z 26002KT 15SM OVC006 03/02 A3056
SE 86 nm 141' KAWO 222256Z 30007KT 10SM CLR 08/04 A3052
SE 93 nm 606' KPAE 222253Z 34007KT 310V020 10SM VCFG FEW001 07/03 A3051
TAFs for airports near CYCD, sorted by distance:
E 54 nm 171' KBLI TAF KBLI 221720Z 2218/2318 VRB04KT P6SM SCT010 SCT250
  TEMPO 2218/2220 4SM BR OVC007
  FM222000 36003KT P6SM FEW010 SCT200
  FM230800 00000KT 4SM BR SKC
  FM231100 00000KT 1SM BR SKC
  TEMPO 2312/2316 1/4SM FG VV001
S 58 nm 291' KCLM TAF KCLM 221720Z 2218/2318 VRB04KT P6SM OVC013
  FM222000 11004KT P6SM SCT200
  FM230600 14003KT 6SM BR OVC015
SE 63 nm 47' KNUW TAF KNUW 2215/2315 VRB06KT 8000 BR VCFG SCT003 BKN250 QNH3056INS
  TEMPO 2215/2219 0800 FG VV002
  FM221900 35008KT 9999 VCFG FEW010 SCT080 SCT250 QNH3045INS
  FM230000 VRB06KT 9999 FEW010 SCT180 QNH3046INS T07/2222Z T02/2309Z FS30189
SE 93 nm 606' KPAE TAF
  AMD KPAE 222145Z 2222/2318 36006KT P6SM SCT010 SCT200
  FM230500 VRB02KT 1SM BR BKN003
  FM231000 00000KT 1/4SM FG VV001

Shortcut to this page: http://wxbay.com.

Data may contain errors.